Time;durP1;ratioP1;P1;durP2;ratioP2;P2;SDS_P1;SDS_P2;PMS_P1;PMS_P2;Temp;Humidity;BMP_temperature;BMP_pressure;BME280_temperature;BME280_humidity;BME280_pressure;Samples;Min_cycle;Max_cycle;Signal;HPM_P1;HPM_P2
2023/03/10 00:00:35;;;;;;;;;2.75;1.00;;;;;11.01;100.00;98503.38;5119130;27;45410;-62
2023/03/10 00:03:00;;;;;;;;;5.25;2.00;;;;;11.03;100.00;98506.75;5119047;27;45343;-62
2023/03/10 00:05:25;;;;;;;;;1.75;1.00;;;;;10.85;100.00;98471.00;5119247;27;45320;-62
2023/03/10 00:07:51;;;;;;;;;3.25;2.00;;;;;11.11;100.00;98507.16;5118781;27;45394;-62
2023/03/10 00:10:17;;;;;;;;;8.00;1.75;;;;;11.17;100.00;98505.94;5118917;27;45327;-62
2023/03/10 00:12:43;;;;;;;;;1.00;1.00;;;;;11.02;100.00;98477.88;5119266;27;45339;-62
2023/03/10 00:15:09;;;;;;;;;4.25;2.00;;;;;11.20;100.00;98502.28;5118617;27;46130;-62
2023/03/10 00:17:35;;;;;;;;;2.75;2.00;;;;;11.20;100.00;98495.19;5118745;27;45376;-62
2023/03/10 00:20:01;;;;;;;;;2.75;2.00;;;;;11.22;100.00;98484.56;5118939;27;45710;-62
2023/03/10 00:22:26;;;;;;;;;1.50;1.50;;;;;11.23;100.00;98479.19;5119137;27;45374;-62
2023/03/10 00:24:51;;;;;;;;;5.75;1.75;;;;;11.27;100.00;98479.84;5118617;27;45509;-62
2023/03/10 00:27:17;;;;;;;;;2.00;1.00;;;;;11.30;100.00;98474.41;5117638;27;45285;-62
2023/03/10 00:29:42;;;;;;;;;3.50;1.75;;;;;11.35;100.00;98480.22;5118869;27;45485;-62
2023/03/10 00:32:07;;;;;;;;;2.50;0.75;;;;;11.30;100.00;98471.78;5119074;27;45236;-62
2023/03/10 00:34:33;;;;;;;;;0.75;0.75;;;;;11.34;100.00;98473.25;5118604;27;45303;-62
2023/03/10 00:36:58;;;;;;;;;2.00;1.00;;;;;11.14;100.00;98429.75;5118399;27;45304;-62
2023/03/10 00:39:23;;;;;;;;;5.00;1.00;;;;;11.25;100.00;98450.97;5118734;27;45395;-62
2023/03/10 00:41:49;;;;;;;;;1.00;1.00;;;;;11.31;100.00;98460.28;5118844;27;45280;-62
2023/03/10 00:44:15;;;;;;;;;4.00;2.00;;;;;11.23;100.00;98450.22;5118382;27;46611;-62
2023/03/10 00:46:40;;;;;;;;;3.00;3.00;;;;;11.22;100.00;98450.31;5118337;27;45599;-62
2023/03/10 00:49:07;;;;;;;;;1.75;1.00;;;;;11.18;100.00;98449.66;5118466;27;45426;-62
2023/03/10 00:51:34;;;;;;;;;3.00;1.00;;;;;11.14;100.00;98449.00;5118450;27;45541;-62
2023/03/10 00:54:00;;;;;;;;;2.50;1.00;;;;;11.11;100.00;98457.09;5118366;27;46361;-62
2023/03/10 00:56:27;;;;;;;;;3.00;1.00;;;;;11.08;100.00;98441.50;5118115;27;45481;-62
2023/03/10 00:58:54;;;;;;;;;1.00;1.00;;;;;11.06;100.00;98445.16;5118637;27;45323;-62
2023/03/10 01:01:20;;;;;;;;;2.00;0.50;;;;;11.06;100.00;98445.16;5118402;27;45300;-62
2023/03/10 01:03:46;;;;;;;;;2.00;0.00;;;;;11.05;100.00;98435.56;5118032;27;46363;-62
2023/03/10 01:06:12;;;;;;;;;2.00;0.75;;;;;11.00;100.00;98413.94;5118132;27;45277;-62
2023/03/10 01:08:37;;;;;;;;;1.50;1.00;;;;;11.12;100.00;98434.25;5118193;27;45463;-62
2023/03/10 01:11:03;;;;;;;;;2.75;1.00;;;;;11.11;100.00;98429.91;5118235;27;45498;-62
2023/03/10 01:13:29;;;;;;;;;11.50;9.00;;;;;11.12;100.00;98428.97;5117980;27;47490;-62
2023/03/10 01:15:54;;;;;;;;;0.75;0.75;;;;;11.17;100.00;98429.53;5118070;27;45390;-62
2023/03/10 01:18:20;;;;;;;;;0.00;0.00;;;;;11.08;100.00;98415.16;5118256;27;45438;-62
2023/03/10 01:20:47;;;;;;;;;2.00;0.50;;;;;11.19;99.85;98424.19;5118286;27;45400;-62
2023/03/10 01:23:19;;;;;;;;;3.00;1.00;;;;;11.19;99.98;98417.13;5118005;27;45503;-62
2023/03/10 01:25:44;;;;;;;;;1.00;1.00;;;;;11.20;100.00;98415.34;5117759;27;45327;-62
2023/03/10 01:28:10;;;;;;;;;2.50;0.00;;;;;11.20;99.10;98407.44;5118119;27;45307;-62
2023/03/10 01:30:35;;;;;;;;;0.00;0.00;;;;;11.20;99.43;98407.44;5118204;27;45349;-62
2023/03/10 01:33:01;;;;;;;;;1.50;1.50;;;;;11.13;99.46;98383.28;5117831;27;46635;-62
2023/03/10 01:35:27;;;;;;;;;1.00;1.00;;;;;11.20;98.02;98389.84;5117733;27;45311;-62
2023/03/10 01:37:53;;;;;;;;;3.25;1.50;;;;;11.26;99.58;98388.59;5119752;27;45368;-62
2023/03/10 01:40:19;;;;;;;;;5.75;2.25;;;;;11.30;98.31;98388.31;5121586;27;45603;-62
2023/03/10 01:42:44;;;;;;;;;2.00;2.00;;;;;11.25;98.13;98382.47;5121187;27;46362;-62
2023/03/10 01:45:12;;;;;;;;;3.25;1.00;;;;;11.29;98.20;98383.13;5121316;27;45290;-62
2023/03/10 01:47:38;;;;;;;;;2.00;1.00;;;;;11.29;99.69;98372.59;5121319;27;45346;-62
2023/03/10 01:50:07;;;;;;;;;4.00;1.00;;;;;11.28;98.42;98374.41;5121417;27;45364;-62
2023/03/10 01:52:34;;;;;;;;;1.50;1.00;;;;;11.30;97.66;98371.66;5121011;27;45554;-62
2023/03/10 01:55:06;;;;;;;;;4.00;3.00;;;;;11.28;99.29;98365.63;5121101;27;45385;-62
2023/03/10 01:57:40;;;;;;;;;5.50;2.75;;;;;11.27;97.94;98359.53;5121045;27;46349;-62
2023/03/10 02:00:13;;;;;;;;;3.00;0.00;;;;;11.19;97.23;98334.63;5121410;27;45370;-62
2023/03/10 02:02:51;;;;;;;;;2.75;1.75;;;;;11.31;97.39;98352.25;5119859;27;45683;-62
2023/03/10 02:05:18;;;;;;;;;0.75;0.75;;;;;11.30;98.31;98348.78;5120982;27;45444;-62
2023/03/10 02:07:44;;;;;;;;;3.00;1.00;;;;;11.30;97.22;98343.53;5120789;27;45485;-62
2023/03/10 02:10:14;;;;;;;;;3.00;1.00;;;;;11.36;96.88;98349.34;5120921;27;45303;-62
2023/03/10 02:12:39;;;;;;;;;3.50;1.50;;;;;11.32;95.86;98343.41;5120669;27;46458;-62
2023/03/10 02:15:06;;;;;;;;;1.50;1.50;;;;;11.13;94.93;98304.25;5120710;27;45318;-62
2023/03/10 02:17:33;;;;;;;;;2.75;2.75;;;;;11.35;94.84;98345.84;5120238;27;45337;-62
2023/03/10 02:20:20;;;;;;;;;3.00;2.00;;;;;11.33;93.98;98338.06;5121105;27;45492;-62
2023/03/10 02:22:46;;;;;;;;;2.00;2.00;;;;;11.31;94.77;98334.69;5120428;27;46557;-62
2023/03/10 02:25:36;;;;;;;;;2.75;1.00;;;;;11.28;95.41;98332.25;5120552;27;45212;-62
2023/03/10 02:28:03;;;;;;;;;1.25;1.00;;;;;11.23;95.17;98323.78;5120553;27;45403;-62
2023/03/10 02:30:33;;;;;;;;;5.50;2.00;;;;;11.18;95.10;98317.13;5120815;27;45349;-62
2023/03/10 02:33:05;;;;;;;;;2.50;1.25;;;;;11.24;94.41;98328.13;5120403;27;46683;-62
2023/03/10 02:35:31;;;;;;;;;3.25;1.00;;;;;11.23;94.55;98323.78;5120523;27;45453;-62
2023/03/10 02:37:57;;;;;;;;;3.50;1.00;;;;;11.22;94.17;98322.09;5120493;27;45350;-62
2023/03/10 02:40:33;;;;;;;;;2.75;1.00;;;;;11.22;94.87;98318.63;5120535;27;45339;-62
2023/03/10 02:43:02;;;;;;;;;2.50;1.00;;;;;11.20;94.21;98317.88;5120137;27;46157;-62
2023/03/10 02:45:33;;;;;;;;;6.75;1.00;;;;;11.19;93.83;98318.81;5120252;27;45382;-62
2023/03/10 02:47:58;;;;;;;;;0.00;0.00;;;;;11.15;93.21;98307.63;5120462;27;45326;-62
2023/03/10 02:50:27;;;;;;;;;2.00;2.00;;;;;11.15;93.30;98310.25;5119624;27;45393;-62
2023/03/10 02:53:03;;;;;;;;;1.00;1.00;;;;;11.12;94.33;98313.09;5120279;27;46570;-62
2023/03/10 02:55:29;;;;;;;;;1.75;0.00;;;;;11.04;93.06;98297.78;5120351;27;45356;-62
2023/03/10 02:57:55;;;;;;;;;2.00;1.00;;;;;11.07;93.10;98294.97;5120117;27;45357;-62
2023/03/10 03:00:20;;;;;;;;;2.50;1.00;;;;;11.10;92.55;98302.66;5120387;27;45292;-62
2023/03/10 03:02:45;;;;;;;;;3.50;0.00;;;;;11.08;92.55;98293.16;5119898;27;46407;-62
2023/03/10 03:05:11;;;;;;;;;1.75;1.00;;;;;11.03;92.81;98285.56;5120000;27;45232;-62
2023/03/10 03:07:36;;;;;;;;;2.75;0.00;;;;;11.13;92.83;98301.63;5119704;27;45425;-62
2023/03/10 03:10:02;;;;;;;;;0.00;0.00;;;;;11.13;92.99;98301.63;5120267;27;45311;-62
2023/03/10 03:12:27;;;;;;;;;3.00;0.25;;;;;11.11;93.42;98303.50;5119840;27;46573;-62
2023/03/10 03:14:52;;;;;;;;;3.50;0.00;;;;;11.03;93.70;98290.00;5119760;27;45370;-62
2023/03/10 03:17:18;;;;;;;;;1.50;0.75;;;;;11.06;92.24;98295.06;5120075;27;45374;-62
2023/03/10 03:19:43;;;;;;;;;2.00;0.00;;;;;10.89;93.28;98282.97;5120152;27;45394;-62
2023/03/10 03:22:08;;;;;;;;;0.00;0.00;;;;;10.84;93.41;98285.91;5119565;27;45599;-62
2023/03/10 03:24:34;;;;;;;;;0.00;0.00;;;;;10.86;93.64;98291.91;5119802;27;45382;-62
2023/03/10 03:26:59;;;;;;;;;2.75;1.00;;;;;10.79;92.56;98294.09;5119570;27;45476;-62
2023/03/10 03:29:24;;;;;;;;;4.00;0.75;;;;;10.59;92.75;98269.03;5119908;27;45420;-62
2023/03/10 03:31:50;;;;;;;;;2.50;0.00;;;;;10.74;92.82;98290.06;5119502;27;46956;-62
2023/03/10 03:34:16;;;;;;;;;0.00;0.00;;;;;10.68;93.44;98291.28;5119494;27;45444;-62
2023/03/10 03:36:41;;;;;;;;;2.50;1.00;;;;;10.69;93.41;98282.47;5119730;27;45276;-62
2023/03/10 03:39:07;;;;;;;;;2.00;0.75;;;;;10.69;93.16;98274.56;5119595;27;45319;-62
2023/03/10 03:41:33;;;;;;;;;2.25;1.25;;;;;10.77;93.20;98288.06;5119118;27;46254;-62
2023/03/10 03:43:58;;;;;;;;;4.00;1.50;;;;;10.78;92.95;98284.50;5119587;27;45367;-62
2023/03/10 03:46:24;;;;;;;;;2.00;1.00;;;;;10.67;93.10;98265.06;5119481;27;45326;-62
2023/03/10 03:48:49;;;;;;;;;2.50;1.00;;;;;10.68;93.33;98274.66;5119914;27;45425;-62
2023/03/10 03:51:15;;;;;;;;;1.00;1.00;;;;;10.71;93.42;98282.38;5119046;27;45526;-62
2023/03/10 03:53:41;;;;;;;;;1.00;1.00;;;;;10.73;93.93;98280.47;5119133;27;45307;-62
2023/03/10 03:56:06;;;;;;;;;0.00;0.00;;;;;10.77;92.55;98287.22;5119441;27;45433;-62
2023/03/10 03:58:32;;;;;;;;;6.00;1.25;;;;;10.69;92.40;98269.31;5119371;27;45531;-62
2023/03/10 04:00:57;;;;;;;;;2.75;1.00;;;;;10.77;91.73;98279.34;5118899;27;46460;-62
2023/03/10 04:03:22;;;;;;;;;5.50;1.50;;;;;10.78;92.57;98276.59;5118949;27;45319;-62
2023/03/10 04:05:48;;;;;;;;;4.75;4.00;;;;;10.68;91.34;98264.97;5119069;27;45423;-62
2023/03/10 04:08:14;;;;;;;;;7.75;1.50;;;;;10.79;91.68;98275.66;5119242;27;45437;-62
2023/03/10 04:10:39;;;;;;;;;2.00;1.00;;;;;10.72;90.99;98260.38;5118804;27;46329;-62
2023/03/10 04:13:04;;;;;;;;;8.50;4.75;;;;;10.79;90.92;98265.13;5118737;27;45402;-62
2023/03/10 04:15:30;;;;;;;;;2.50;0.50;;;;;10.75;90.41;98253.13;5119002;27;45241;-62
2023/03/10 04:17:56;;;;;;;;;3.50;2.00;;;;;10.71;90.20;98254.25;5119032;27;45302;-62
2023/03/10 04:20:23;;;;;;;;;6.00;1.50;;;;;10.78;90.47;98263.44;5118895;27;47334;-62
2023/03/10 04:22:49;;;;;;;;;4.25;2.00;;;;;10.74;90.33;98267.22;5118733;27;45276;-62
2023/03/10 04:25:15;;;;;;;;;3.00;1.75;;;;;10.69;90.89;98265.81;5118863;27;45437;-62
2023/03/10 04:27:40;;;;;;;;;1.00;1.00;;;;;10.67;91.50;98258.00;5118756;27;45146;-62
2023/03/10 04:30:06;;;;;;;;;3.00;1.00;;;;;10.65;92.60;98252.00;5118204;27;45525;-62
2023/03/10 04:32:32;;;;;;;;;2.75;1.25;;;;;10.67;92.53;98263.28;5118837;27;45224;-62
2023/03/10 04:34:57;;;;;;;;;4.00;1.00;;;;;10.63;92.33;98248.66;5118653;27;45460;-62
2023/03/10 04:37:22;;;;;;;;;3.00;1.00;;;;;10.68;91.39;98256.25;5118968;27;45461;-61
2023/03/10 04:39:48;;;;;;;;;1.50;1.50;;;;;10.65;92.32;98257.28;5118433;27;46529;-61
2023/03/10 04:42:13;;;;;;;;;1.00;1.00;;;;;10.63;91.77;98248.66;5118314;27;45362;-62
2023/03/10 04:44:39;;;;;;;;;6.50;1.50;;;;;10.58;92.93;98251.53;5118736;27;45495;-62
2023/03/10 04:47:04;;;;;;;;;3.75;2.50;;;;;10.65;93.70;98257.28;5118743;27;45358;-62
2023/03/10 04:49:29;;;;;;;;;15.00;5.00;;;;;10.65;92.00;98246.75;5118369;27;45499;-69
2023/03/10 04:51:55;;;;;;;;;17.33;14.33;;;;;10.42;93.68;98203.47;5118214;27;45342;-62
2023/03/10 04:54:20;;;;;;;;;6.00;2.50;;;;;10.73;92.40;98249.75;5118661;27;45402;-61
2023/03/10 04:56:46;;;;;;;;;5.25;2.00;;;;;10.75;92.73;98249.66;5118524;27;45347;-62
2023/03/10 04:59:11;;;;;;;;;6.00;3.00;;;;;10.79;91.90;98251.16;5118316;27;45444;-62
2023/03/10 05:01:36;;;;;;;;;4.75;2.25;;;;;10.75;92.38;98247.03;5118220;27;45331;-62
2023/03/10 05:04:03;;;;;;;;;1.75;1.75;;;;;10.78;91.99;98246.81;5118329;27;45422;-62
2023/03/10 05:06:29;;;;;;;;;2.00;1.25;;;;;10.79;92.43;98251.97;5118270;27;45371;-62
2023/03/10 05:08:55;;;;;;;;;1.00;1.00;;;;;10.76;91.40;98244.28;5118268;27;45506;-62
2023/03/10 05:11:20;;;;;;;;;4.25;1.00;;;;;10.79;91.39;98244.09;5118078;27;45221;-62
2023/03/10 05:13:46;;;;;;;;;3.00;2.00;;;;;10.74;90.88;98240.88;5121302;27;45216;-62
2023/03/10 05:16:18;;;;;;;;;3.50;1.25;;;;;10.67;92.17;98228.22;5122009;27;45407;-62
2023/03/10 05:18:44;;;;;;;;;4.75;1.00;;;;;10.74;92.28;98243.53;5121705;27;46565;-62
2023/03/10 05:21:10;;;;;;;;;3.75;1.25;;;;;10.74;90.90;98243.53;5121713;27;45305;-62
2023/03/10 05:23:36;;;;;;;;;3.25;1.00;;;;;10.72;90.00;98234.06;5121811;27;45748;-62
2023/03/10 05:26:06;;;;;;;;;5.00;1.50;;;;;10.76;90.81;98246.06;5122039;27;45335;-62
2023/03/10 05:28:31;;;;;;;;;5.50;1.00;;;;;10.75;91.70;98239.13;5121255;27;46470;-62
2023/03/10 05:30:57;;;;;;;;;1.25;0.75;;;;;10.68;92.41;98233.41;5121268;27;45461;-62
2023/03/10 05:33:23;;;;;;;;;2.75;0.50;;;;;10.71;92.08;98235.81;5121840;27;45243;-62
2023/03/10 05:35:48;;;;;;;;;2.00;0.50;;;;;10.67;92.21;98230.84;5121655;27;45155;-62
2023/03/10 05:38:14;;;;;;;;;3.00;1.00;;;;;10.63;92.51;98227.59;5120713;27;46243;-62
2023/03/10 05:40:40;;;;;;;;;1.00;0.00;;;;;10.65;93.29;98232.75;5121589;27;45441;-62
2023/03/10 05:43:06;;;;;;;;;0.50;0.00;;;;;10.61;93.02;98234.72;5121351;27;45722;-62
2023/03/10 05:45:31;;;;;;;;;4.25;0.00;;;;;10.62;92.52;98233.78;5121525;27;45182;-62
2023/03/10 05:47:57;;;;;;;;;3.00;0.00;;;;;10.57;93.52;98218.31;5121172;27;46478;-62
2023/03/10 05:50:22;;;;;;;;;2.00;1.00;;;;;10.60;91.96;98223.38;5121025;27;45416;-62
2023/03/10 05:52:47;;;;;;;;;1.75;1.00;;;;;10.58;92.83;98219.97;5121414;27;45267;-62
2023/03/10 05:55:17;;;;;;;;;1.75;1.00;;;;;10.56;92.72;98224.50;5121462;27;45398;-62
2023/03/10 05:57:43;;;;;;;;;1.00;1.00;;;;;10.54;93.77;98220.25;5121043;27;45530;-62
2023/03/10 06:00:11;;;;;;;;;0.50;0.00;;;;;10.50;93.38;98211.75;5118904;27;45248;-62
2023/03/10 06:02:38;;;;;;;;;2.00;0.75;;;;;10.54;92.57;98222.91;5104881;27;45443;-62
2023/03/10 06:05:05;;;;;;;;;2.00;1.00;;;;;10.47;93.57;98213.69;5106839;27;45436;-62
2023/03/10 06:07:30;;;;;;;;;3.00;1.00;;;;;10.50;92.98;98213.50;5099934;27;45432;-62
2023/03/10 06:09:56;;;;;;;;;1.00;1.00;;;;;10.47;94.21;98216.34;5100243;27;45462;-62
2023/03/10 06:12:21;;;;;;;;;2.75;1.00;;;;;10.49;92.82;98211.84;5100111;27;45504;-61
2023/03/10 06:14:47;;;;;;;;;3.50;3.50;;;;;10.37;93.80;98192.38;5100541;27;45426;-61
2023/03/10 06:17:12;;;;;;;;;1.00;0.25;;;;;10.38;93.53;98205.47;5100052;27;46732;-62
2023/03/10 06:19:37;;;;;;;;;4.25;2.75;;;;;10.46;93.65;98215.50;5099974;27;45465;-62
2023/03/10 06:22:03;;;;;;;;;1.00;1.00;;;;;10.39;93.95;98201.03;5100330;27;45434;-62
2023/03/10 06:24:28;;;;;;;;;5.25;4.00;;;;;10.43;94.40;98213.06;5099031;27;45331;-62
2023/03/10 06:26:53;;;;;;;;;2.00;2.00;;;;;10.34;94.66;98193.44;5099546;27;46279;-62
2023/03/10 06:29:19;;;;;;;;;2.75;1.00;;;;;10.39;94.69;98208.94;5099899;27;45389;-62
2023/03/10 06:31:44;;;;;;;;;0.00;0.00;;;;;10.38;94.98;98213.38;5099502;27;45163;-62
2023/03/10 06:34:09;;;;;;;;;2.75;1.00;;;;;10.26;95.53;98199.13;5100436;27;45187;-62
2023/03/10 06:36:36;;;;;;;;;3.00;1.00;;;;;10.39;95.87;98216.81;5099613;27;46158;-62
2023/03/10 06:39:01;;;;;;;;;3.00;1.00;;;;;10.38;96.04;98223.88;5099309;27;45376;-62
2023/03/10 06:41:27;;;;;;;;;1.00;1.00;;;;;10.26;96.05;98195.69;5099850;27;45348;-62
2023/03/10 06:43:52;;;;;;;;;0.00;0.00;;;;;10.39;95.96;98211.56;5099591;27;45320;-62
2023/03/10 06:46:18;;;;;;;;;4.75;2.00;;;;;10.39;96.79;98216.81;5099797;27;45679;-62
2023/03/10 06:48:43;;;;;;;;;3.75;1.00;;;;;10.18;96.34;98187.41;5099673;27;45404;-62
2023/03/10 06:51:13;;;;;;;;;2.50;1.25;;;;;10.37;97.16;98222.19;5099658;27;45375;-62
2023/03/10 06:53:39;;;;;;;;;1.50;1.00;;;;;10.18;96.58;98192.66;5099786;27;45368;-62
2023/03/10 06:56:07;;;;;;;;;1.00;1.00;;;;;10.34;96.94;98226.78;5099280;27;45339;-62
2023/03/10 06:58:34;;;;;;;;;3.75;1.00;;;;;10.31;97.10;98229.56;5099339;27;45323;-62
2023/03/10 07:01:00;;;;;;;;;1.00;0.25;;;;;10.30;97.17;98228.75;5099680;27;45289;-62
2023/03/10 07:03:27;;;;;;;;;2.00;2.00;;;;;10.28;97.58;98230.59;5099497;27;45414;-62
2023/03/10 07:05:59;;;;;;;;;1.00;1.00;;;;;10.24;97.87;98227.34;5099326;27;47428;-62
2023/03/10 07:08:28;;;;;;;;;3.75;2.00;;;;;10.21;98.08;98234.56;5099193;27;45392;-62
2023/03/10 07:10:54;;;;;;;;;1.00;1.00;;;;;10.20;98.27;98241.59;5099254;27;45442;-62
2023/03/10 07:13:20;;;;;;;;;4.00;2.00;;;;;10.19;99.30;98247.78;5099291;27;45282;-62
2023/03/10 07:15:47;;;;;;;;;3.00;2.00;;;;;10.18;99.10;98238.25;5099176;27;47299;-62
2023/03/10 07:18:13;;;;;;;;;14.67;10.67;;;;;10.14;99.39;98235.88;5099126;27;45528;-62
2023/03/10 07:20:41;;;;;;;;;22.00;20.33;;;;;9.79;100.00;98186.31;5099303;27;45492;-62
2023/03/10 07:23:06;;;;;;;;;2.00;2.00;;;;;10.01;100.00;98212.97;5099260;27;45276;-62
2023/03/10 07:25:35;;;;;;;;;1.00;1.00;;;;;10.02;100.00;98225.19;5098906;27;45445;-62
2023/03/10 07:28:00;;;;;;;;;0.25;0.25;;;;;10.05;100.00;98240.78;5098830;27;45433;-62
2023/03/10 07:30:25;;;;;;;;;2.00;1.25;;;;;10.09;100.00;98246.66;5099001;27;45301;-62
2023/03/10 07:32:54;;;;;;;;;3.75;2.00;;;;;10.08;100.00;98237.94;5099327;27;45336;-62
2023/03/10 07:35:19;;;;;;;;;2.50;1.25;;;;;10.07;100.00;98236.25;5098387;27;45440;-62
2023/03/10 07:37:44;;;;;;;;;2.50;2.25;;;;;10.09;100.00;98242.28;5098669;27;45341;-62
2023/03/10 07:40:10;;;;;;;;;3.00;1.00;;;;;10.17;100.00;98243.59;5099071;27;45325;-62
2023/03/10 07:42:36;;;;;;;;;1.25;1.00;;;;;10.18;100.00;98254.00;5099074;27;45406;-62
2023/03/10 07:45:02;;;;;;;;;0.75;0.75;;;;;9.93;100.00;98215.22;5098548;27;46053;-62
2023/03/10 07:47:27;;;;;;;;;1.00;1.00;;;;;10.11;100.00;98252.69;5098818;27;45341;-62
2023/03/10 07:49:52;;;;;;;;;1.00;1.00;;;;;10.20;100.00;98261.81;5098876;27;45312;-62
2023/03/10 07:52:18;;;;;;;;;8.00;5.00;;;;;10.21;100.00;98260.84;5098997;27;45525;-62
2023/03/10 07:54:44;;;;;;;;;1.00;1.00;;;;;10.25;100.00;98265.84;5098506;27;46642;-62
2023/03/10 07:57:10;;;;;;;;;2.00;0.00;;;;;10.14;100.00;98247.25;5098791;27;45283;-62
2023/03/10 07:59:36;;;;;;;;;0.25;0.25;;;;;10.20;100.00;98261.81;5098569;27;45170;-62
2023/03/10 08:02:02;;;;;;;;;0.00;0.00;;;;;10.27;100.00;98268.38;5098654;27;45457;-62
2023/03/10 08:04:27;;;;;;;;;0.25;0.00;;;;;10.24;100.00;98273.84;5098450;27;46681;-62
2023/03/10 08:06:53;;;;;;;;;0.00;0.00;;;;;10.24;100.00;98284.34;5098254;27;45236;-62
2023/03/10 08:09:18;;;;;;;;;0.25;0.00;;;;;10.20;100.00;98283.69;5098581;27;45422;-62
2023/03/10 08:11:43;;;;;;;;;0.00;0.00;;;;;10.23;100.00;98287.91;5097690;27;45422;-62
2023/03/10 08:14:09;;;;;;;;;0.00;0.00;;;;;10.36;100.00;98299.41;5098171;27;45330;-62
2023/03/10 08:16:34;;;;;;;;;0.25;0.25;;;;;10.37;100.00;98297.59;5098298;27;45411;-62
2023/03/10 08:18:59;;;;;;;;;0.25;0.25;;;;;10.47;100.00;98303.16;5098237;27;45743;-62
2023/03/10 08:21:25;;;;;;;;;2.50;1.00;;;;;10.40;100.00;98290.38;5098566;27;45254;-62
2023/03/10 08:23:50;;;;;;;;;0.50;0.00;;;;;10.51;100.00;98302.03;5096282;27;46654;-62
2023/03/10 08:26:17;;;;;;;;;0.00;0.00;;;;;10.55;100.00;98303.53;5098299;27;45439;-62
2023/03/10 08:28:43;;;;;;;;;0.00;0.00;;;;;10.40;100.00;98273.78;5098188;27;45421;-62
2023/03/10 08:31:12;;;;;;;;;0.00;0.00;;;;;10.44;100.00;98265.59;5098140;27;45387;-62
2023/03/10 08:33:39;;;;;;;;;3.50;1.00;;;;;10.74;100.00;98300.59;5097762;27;46264;-62
2023/03/10 08:36:16;;;;;;;;;0.00;0.00;;;;;10.81;100.00;98299.25;5097784;27;45404;-62
2023/03/10 08:38:42;;;;;;;;;1.00;1.00;;;;;10.87;100.00;98312.03;5098036;27;45348;-62
2023/03/10 08:41:19;;;;;;;;;0.50;0.50;;;;;10.91;100.00;98318.78;5098120;27;45312;-62
2023/03/10 08:43:46;;;;;;;;;8.00;8.00;;;;;10.96;100.00;98313.22;5097529;27;46331;-62
2023/03/10 08:46:12;;;;;;;;;1.25;1.25;;;;;10.98;100.00;98320.09;5111162;27;45209;-62
2023/03/10 08:48:38;;;;;;;;;1.00;0.00;;;;;10.95;100.00;98335.25;5121594;27;45332;-62
2023/03/10 08:51:04;;;;;;;;;1.00;1.00;;;;;10.96;100.00;98336.94;5122203;27;45531;-62
2023/03/10 08:53:30;;;;;;;;;1.25;0.00;;;;;11.01;100.00;98348.03;5122051;27;45477;-62
2023/03/10 08:55:56;;;;;;;;;2.00;0.00;;;;;11.06;100.00;98350.38;5122049;27;45223;-62
2023/03/10 08:58:23;;;;;;;;;1.50;1.50;;;;;11.01;100.00;98348.03;5122093;27;45394;-62
2023/03/10 09:00:48;;;;;;;;;2.50;0.00;;;;;11.07;100.00;98358.16;5122332;27;45293;-62
2023/03/10 09:03:14;;;;;;;;;1.00;1.00;;;;;11.20;100.00;98370.56;5121824;27;46206;-62
2023/03/10 09:05:39;;;;;;;;;1.00;1.00;;;;;11.13;100.00;98363.03;5121696;27;45419;-62
2023/03/10 09:08:06;;;;;;;;;0.00;0.00;;;;;11.25;100.00;98371.94;5121906;27;45349;-62
2023/03/10 09:10:32;;;;;;;;;0.00;0.00;;;;;11.28;100.00;98374.41;5122120;27;45318;-62
2023/03/10 09:12:58;;;;;;;;;1.00;0.00;;;;;11.33;100.00;98374.94;5121900;27;46412;-62
2023/03/10 09:15:23;;;;;;;;;0.00;0.00;;;;;11.28;100.00;98347.19;5121717;27;45133;-62
2023/03/10 09:17:48;;;;;;;;;2.00;1.25;;;;;11.41;100.00;98376.22;5121859;27;45347;-62
2023/03/10 09:20:14;;;;;;;;;0.00;0.00;;;;;11.48;100.00;98374.91;5122197;27;45606;-62
2023/03/10 09:22:40;;;;;;;;;1.00;1.00;;;;;11.55;99.79;98386.72;5121579;27;46310;-62
2023/03/10 09:25:06;;;;;;;;;1.00;1.00;;;;;11.53;99.65;98377.22;5121658;27;45464;-62
2023/03/10 09:27:31;;;;;;;;;2.50;0.00;;;;;11.65;98.72;98403.63;5121664;27;45350;-62
2023/03/10 09:29:57;;;;;;;;;0.00;0.00;;;;;11.54;98.26;98395.56;5121745;27;45336;-62
2023/03/10 09:32:22;;;;;;;;;3.75;2.50;;;;;11.65;98.59;98419.44;5121252;27;45392;-62
2023/03/10 09:34:47;;;;;;;;;0.25;0.00;;;;;11.59;98.54;98398.75;5121467;27;45345;-62
2023/03/10 09:37:13;;;;;;;;;0.00;0.00;;;;;11.70;97.96;98418.31;5121746;27;45283;-62
2023/03/10 09:39:38;;;;;;;;;0.00;0.00;;;;;11.72;96.87;98419.03;5121853;27;45414;-62
2023/03/10 09:42:33;;;;;;;;;0.00;0.00;;;;;11.74;95.88;98420.63;5121230;27;47331;-62
2023/03/10 09:45:09;;;;;;;;;0.00;0.00;;;;;11.71;95.85;98431.38;5121137;27;45204;-62
2023/03/10 09:47:51;;;;;;;;;1.75;1.00;;;;;11.62;94.44;98442.53;5121415;27;45463;-62
2023/03/10 09:50:22;;;;;;;;;0.00;0.00;;;;;11.66;93.39;98468.59;5121510;27;45295;-62
2023/03/10 09:52:59;;;;;;;;;0.00;0.00;;;;;11.60;92.64;98476.03;5121474;27;46651;-62
2023/03/10 09:55:39;;;;;;;;;0.00;0.00;;;;;11.42;91.93;98492.06;5121136;27;45441;-62
2023/03/10 09:58:11;;;;;;;;;0.00;0.00;;;;;11.39;92.27;98512.50;5120935;27;45465;-62
2023/03/10 10:00:40;;;;;;;;;0.75;0.75;;;;;11.32;88.48;98531.31;5121097;27;45536;-62
2023/03/10 10:03:05;;;;;;;;;1.00;1.00;;;;;11.22;89.16;98524.06;5121147;27;46515;-62
2023/03/10 10:05:34;;;;;;;;;0.00;0.00;;;;;11.14;86.54;98501.69;5120979;27;45180;-62
2023/03/10 10:08:04;;;;;;;;;0.00;0.00;;;;;11.08;88.15;98528.41;5120931;27;45405;-62
2023/03/10 10:10:37;;;;;;;;;1.25;1.25;;;;;10.97;88.55;98536.94;5121073;27;45219;-62
2023/03/10 10:13:12;;;;;;;;;2.00;1.00;;;;;10.92;88.64;98551.31;5120684;27;47534;-62
2023/03/10 10:15:44;;;;;;;;;3.25;2.00;;;;;10.82;88.80;98545.78;5120601;27;45494;-62
2023/03/10 10:18:45;;;;;;;;;0.75;0.50;;;;;10.80;87.53;98552.91;5120983;27;45373;-62
2023/03/10 10:21:36;;;;;;;;;3.00;2.00;;;;;10.70;86.79;98567.53;5117784;27;45577;-62
2023/03/10 10:24:01;;;;;;;;;5.00;2.25;;;;;10.62;86.14;98547.78;5120562;27;46645;-62
2023/03/10 10:26:27;;;;;;;;;1.25;1.25;;;;;10.58;85.17;98545.41;5119388;27;45465;-62
2023/03/10 10:28:59;;;;;;;;;1.00;1.00;;;;;10.63;86.25;98564.44;5119323;27;45489;-62
2023/03/10 10:31:28;;;;;;;;;3.25;3.25;;;;;10.59;86.06;98582.16;5120968;27;45334;-62
2023/03/10 10:34:02;;;;;;;;;3.75;2.50;;;;;10.56;86.59;98577.09;5120471;27;46430;-62
2023/03/10 10:36:49;;;;;;;;;1.00;1.00;;;;;10.51;85.95;98573.03;5119989;27;45323;-62
2023/03/10 10:39:25;;;;;;;;;0.75;0.00;;;;;10.53;85.03;98586.94;5120387;27;45303;-62
2023/03/10 10:41:51;;;;;;;;;0.50;0.50;;;;;10.46;84.59;98586.44;5120478;27;45158;-62
2023/03/10 10:44:18;;;;;;;;;0.00;0.00;;;;;10.50;84.09;98610.78;5120222;27;46309;-62
2023/03/10 10:46:56;;;;;;;;;0.50;0.50;;;;;10.43;84.43;98616.41;5120345;27;45205;-62
2023/03/10 10:49:23;;;;;;;;;1.00;0.00;;;;;10.38;84.69;98605.31;5120277;27;45422;-62
2023/03/10 10:52:00;;;;;;;;;0.00;0.00;;;;;10.35;83.50;98644.91;5120667;27;45403;-62
2023/03/10 10:54:31;;;;;;;;;2.00;2.00;;;;;10.29;83.13;98655.75;5120305;27;45619;-62
2023/03/10 10:56:59;;;;;;;;;0.00;0.00;;;;;10.26;82.78;98669.09;5120030;27;45427;-62
2023/03/10 10:59:31;;;;;;;;;0.00;0.00;;;;;10.22;84.39;98670.19;5120270;27;45515;-62
2023/03/10 11:02:00;;;;;;;;;0.25;0.25;;;;;10.14;83.88;98670.59;5120254;27;45315;-62
2023/03/10 11:04:39;;;;;;;;;2.00;0.00;;;;;10.21;83.62;98679.00;5119906;27;46025;-62
2023/03/10 11:07:25;;;;;;;;;1.50;1.00;;;;;10.16;85.39;98681.03;5119893;27;45334;-62
2023/03/10 11:09:51;;;;;;;;;2.75;1.00;;;;;10.16;85.51;98686.31;5119182;27;45405;-62
2023/03/10 11:12:24;;;;;;;;;0.00;0.00;;;;;10.21;85.51;98679.00;5120312;27;45335;-62
2023/03/10 11:14:51;;;;;;;;;0.75;0.75;;;;;10.22;85.67;98702.59;5119656;27;45581;-62
2023/03/10 11:17:48;;;;;;;;;1.00;0.00;;;;;10.21;86.57;98700.91;5118997;27;45411;-62
2023/03/10 11:20:38;;;;;;;;;0.75;0.00;;;;;10.16;86.76;98699.44;5056277;28;45352;-62
2023/03/10 11:23:41;;;;;;;;;3.00;2.75;;;;;10.13;87.22;98712.75;5056494;28;45416;-62
2023/03/10 11:26:23;;;;;;;;;0.25;0.25;;;;;10.07;86.38;98701.63;5056032;28;46284;-62
2023/03/10 11:28:52;;;;;;;;;0.00;0.00;;;;;10.20;87.06;98728.13;5055934;28;45522;-62
2023/03/10 11:31:41;;;;;;;;;0.00;0.00;;;;;10.21;84.90;98724.56;5056118;28;45431;-62
2023/03/10 11:34:16;;;;;;;;;0.00;0.00;;;;;10.15;86.27;98731.94;5056383;28;45456;-62